Time;durP1;ratioP1;P1;durP2;ratioP2;P2;SDS_P1;SDS_P2;PMS_P1;PMS_P2;Temp;Humidity;BMP_temperature;BMP_pressure;BME280_temperature;BME280_humidity;BME280_pressure;Samples;Min_cycle;Max_cycle;Signal;HPM_P1;HPM_P2
2021/01/04 00:01:00;;;;;;;6.10;2.43;;;4.60;99.90;;;;;;5026215;28;20208;-49
2021/01/04 00:03:44;;;;;;;2.13;1.80;;;4.70;99.90;;;;;;5040994;28;20184;-44
2021/01/04 00:06:40;;;;;;;4.30;2.10;;;4.70;99.90;;;;;;5028620;28;20210;-48
2021/01/04 00:09:25;;;;;;;3.87;2.10;;;4.70;99.90;;;;;;5016783;28;20223;-53
2021/01/04 00:12:22;;;;;;;4.53;2.00;;;4.80;99.90;;;;;;5024840;28;20195;-51
2021/01/04 00:15:06;;;;;;;4.87;2.03;;;4.80;99.90;;;;;;5017954;28;20196;-51
2021/01/04 00:18:10;;;;;;;2.50;1.73;;;4.80;99.90;;;;;;5020856;28;20179;-49
2021/01/04 00:20:58;;;;;;;3.07;1.63;;;4.80;99.90;;;;;;5022260;28;20924;-51
2021/01/04 00:23:35;;;;;;;3.73;1.70;;;4.80;99.90;;;;;;5013779;28;20281;-45
2021/01/04 00:26:15;;;;;;;6.83;1.77;;;4.80;99.90;;;;;;5021745;28;20191;-48
2021/01/04 00:28:41;;;;;;;3.17;1.50;;;4.90;99.90;;;;;;5021255;28;20357;-49
2021/01/04 00:31:09;;;;;;;3.97;1.47;;;4.90;99.90;;;;;;5026545;28;20564;-50
2021/01/04 00:33:50;;;;;;;3.27;1.90;;;4.90;99.90;;;;;;5025168;28;20345;-53
2021/01/04 00:36:31;;;;;;;6.17;2.20;;;4.90;99.90;;;;;;5021627;28;20354;-46
2021/01/04 00:39:35;;;;;;;4.50;2.10;;;4.90;99.90;;;;;;5017543;28;20200;-49
2021/01/04 00:42:32;;;;;;;5.67;1.73;;;4.90;99.90;;;;;;5017419;28;20246;-53
2021/01/04 00:45:13;;;;;;;5.80;1.80;;;5.00;99.90;;;;;;5028205;28;20200;-52
2021/01/04 00:47:59;;;;;;;3.60;1.63;;;4.90;99.90;;;;;;5025564;28;20281;-52
2021/01/04 00:50:48;;;;;;;2.57;1.53;;;4.90;99.90;;;;;;5019964;28;20295;-46
2021/01/04 00:53:29;;;;;;;6.10;1.93;;;5.00;99.90;;;;;;5002662;28;20177;-48
2021/01/04 00:56:27;;;;;;;2.23;1.47;;;5.00;99.90;;;;;;5016732;28;20180;-52
2021/01/04 00:59:26;;;;;;;3.53;1.63;;;5.00;99.90;;;;;;5016989;28;20176;-54
2021/01/04 01:02:21;;;;;;;2.23;1.37;;;5.00;99.90;;;;;;5018485;28;20282;-52
2021/01/04 01:05:35;;;;;;;2.13;1.27;;;5.00;99.90;;;;;;5027295;28;20161;-53
2021/01/04 01:08:23;;;;;;;2.20;1.40;;;5.00;99.90;;;;;;5038346;28;20191;-48
2021/01/04 01:11:05;;;;;;;4.97;1.30;;;5.00;99.90;;;;;;5022210;28;20270;-51
2021/01/04 01:13:56;;;;;;;3.30;1.60;;;5.00;99.90;;;;;;5029130;28;20206;-50
2021/01/04 01:17:01;;;;;;;3.50;1.67;;;5.00;99.90;;;;;;5037168;28;20184;-49
2021/01/04 01:19:35;;;;;;;4.30;1.63;;;5.00;99.90;;;;;;5042953;28;20173;-51
2021/01/04 01:22:01;;;;;;;3.47;1.40;;;5.00;99.90;;;;;;5029204;28;20211;-50
2021/01/04 01:24:27;;;;;;;3.17;1.53;;;5.00;99.90;;;;;;5011638;28;20538;-51
2021/01/04 01:27:18;;;;;;;2.33;1.53;;;5.00;99.90;;;;;;5025004;28;20188;-51
2021/01/04 01:30:05;;;;;;;1.83;1.60;;;5.00;99.90;;;;;;5019797;28;20739;-49
2021/01/04 01:32:59;;;;;;;2.87;1.17;;;5.00;99.90;;;;;;5023530;28;20199;-51
2021/01/04 01:35:53;;;;;;;1.97;1.20;;;5.00;99.90;;;;;;5021742;28;20207;-47
2021/01/04 01:38:45;;;;;;;3.80;1.60;;;5.00;99.90;;;;;;5024348;28;20212;-50
2021/01/04 01:41:45;;;;;;;1.43;1.20;;;5.00;99.90;;;;;;5014715;28;20216;-45
2021/01/04 01:44:19;;;;;;;4.00;1.37;;;5.00;99.90;;;;;;5025966;28;20196;-45
2021/01/04 01:46:52;;;;;;;1.37;1.10;;;5.00;99.90;;;;;;5025689;28;20179;-49
2021/01/04 01:49:22;;;;;;;2.43;1.20;;;5.00;99.90;;;;;;5024744;28;20215;-51
2021/01/04 01:52:12;;;;;;;4.33;1.20;;;5.00;99.90;;;;;;5036170;28;20192;-50
2021/01/04 01:54:50;;;;;;;2.00;1.13;;;5.00;99.90;;;;;;5044519;28;20551;-50
2021/01/04 01:57:28;;;;;;;1.80;1.17;;;5.00;99.90;;;;;;5014102;28;20993;-50
2021/01/04 02:00:17;;;;;;;2.13;1.60;;;5.00;99.90;;;;;;5016199;28;20179;-54
2021/01/04 02:03:05;;;;;;;1.47;0.87;;;5.00;99.90;;;;;;5025111;28;20203;-53
2021/01/04 02:06:02;;;;;;;2.57;1.00;;;5.00;99.90;;;;;;5018697;28;20199;-51
2021/01/04 02:08:30;;;;;;;1.67;1.23;;;5.00;99.90;;;;;;5021158;28;20160;-53
2021/01/04 02:11:03;;;;;;;2.17;0.73;;;5.00;99.90;;;;;;5025810;28;20230;-51
2021/01/04 02:13:41;;;;;;;4.60;1.00;;;5.00;99.90;;;;;;5009108;28;20199;-52
2021/01/04 02:16:18;;;;;;;2.90;1.13;;;4.90;99.90;;;;;;5025939;28;20677;-50
2021/01/04 02:19:06;;;;;;;2.20;0.70;;;4.90;99.90;;;;;;5028590;28;20179;-51
2021/01/04 02:21:36;;;;;;;1.97;0.90;;;4.90;99.90;;;;;;5022420;28;20456;-52
2021/01/04 02:24:10;;;;;;;2.20;0.90;;;4.90;99.90;;;;;;5034104;28;20555;-55
2021/01/04 02:26:39;;;;;;;1.50;1.00;;;4.90;99.90;;;;;;5040962;28;20283;-48
2021/01/04 02:29:14;;;;;;;1.47;0.80;;;4.90;99.90;;;;;;5014866;28;20188;-46
2021/01/04 02:31:44;;;;;;;3.67;1.10;;;4.90;99.90;;;;;;5015775;28;20211;-49
2021/01/04 02:34:12;;;;;;;1.73;0.90;;;4.80;99.90;;;;;;5021783;28;20191;-51
2021/01/04 02:36:53;;;;;;;2.20;1.10;;;4.80;99.90;;;;;;5017683;28;20912;-47
2021/01/04 02:39:43;;;;;;;2.90;0.70;;;4.80;99.90;;;;;;5020226;28;20237;-46
2021/01/04 02:42:30;;;;;;;3.97;1.03;;;4.80;99.90;;;;;;5020450;28;20282;-50
2021/01/04 02:44:57;;;;;;;2.40;0.90;;;4.90;99.90;;;;;;5012466;28;20354;-48
2021/01/04 02:47:53;;;;;;;2.67;0.97;;;4.80;99.90;;;;;;5016677;28;20192;-48
2021/01/04 02:50:32;;;;;;;1.80;0.83;;;4.80;99.90;;;;;;5004296;28;20212;-52
2021/01/04 02:53:24;;;;;;;1.07;0.90;;;4.80;99.90;;;;;;5019452;28;20180;-46
2021/01/04 02:56:37;;;;;;;3.63;0.90;;;4.80;99.90;;;;;;5026688;28;20164;-47
2021/01/04 02:59:25;;;;;;;3.30;1.10;;;4.70;99.90;;;;;;4996926;28;20206;-48
2021/01/04 03:02:03;;;;;;;4.03;0.90;;;4.70;99.90;;;;;;5022742;28;20208;-49
2021/01/04 03:04:29;;;;;;;2.27;0.60;;;4.70;99.90;;;;;;5022779;28;20983;-46
2021/01/04 03:07:00;;;;;;;3.77;1.00;;;4.60;99.90;;;;;;5027085;28;20172;-47
2021/01/04 03:09:27;;;;;;;4.43;0.77;;;4.60;99.90;;;;;;5021984;28;20231;-47
2021/01/04 03:11:54;;;;;;;2.60;0.60;;;4.60;99.90;;;;;;5026943;28;20660;-47
2021/01/04 03:14:31;;;;;;;3.97;1.17;;;4.60;99.90;;;;;;5022688;28;20215;-49
2021/01/04 03:17:16;;;;;;;2.97;0.73;;;4.60;99.90;;;;;;5017156;28;20211;-50
2021/01/04 03:19:45;;;;;;;1.33;0.90;;;4.50;99.90;;;;;;5024153;28;20267;-47
2021/01/04 03:22:14;;;;;;;3.57;0.80;;;4.50;99.90;;;;;;5025603;28;20211;-50
2021/01/04 03:24:44;;;;;;;1.97;0.60;;;4.40;99.90;;;;;;5024388;28;20184;-47
2021/01/04 03:27:13;;;;;;;2.80;0.80;;;4.30;99.90;;;;;;5025718;28;20198;-49
2021/01/04 03:29:38;;;;;;;2.70;0.80;;;4.20;99.90;;;;;;5012631;28;20295;-47
2021/01/04 03:32:04;;;;;;;5.30;0.87;;;4.10;99.90;;;;;;5022263;28;20294;-47
2021/01/04 03:34:30;;;;;;;3.33;0.73;;;4.10;99.90;;;;;;5021960;28;20357;-47
2021/01/04 03:36:55;;;;;;;2.30;0.80;;;4.00;99.90;;;;;;5026709;28;20168;-48
2021/01/04 03:39:21;;;;;;;1.03;0.60;;;4.00;99.90;;;;;;5023097;28;20254;-50
2021/01/04 03:41:47;;;;;;;2.37;2.10;;;4.00;99.90;;;;;;5009733;28;20286;-49
2021/01/04 03:44:13;;;;;;;2.63;0.80;;;4.00;99.90;;;;;;5002885;28;20188;-49
2021/01/04 03:46:45;;;;;;;1.47;0.60;;;4.00;99.90;;;;;;5023087;28;20823;-47
2021/01/04 03:49:11;;;;;;;2.50;0.77;;;4.00;99.90;;;;;;5024076;28;20688;-49
2021/01/04 03:51:36;;;;;;;2.47;0.97;;;4.00;99.90;;;;;;5023423;28;20188;-48
2021/01/04 03:54:02;;;;;;;2.60;0.93;;;3.90;99.90;;;;;;5026160;28;20230;-51
2021/01/04 03:56:27;;;;;;;1.50;0.70;;;3.90;99.90;;;;;;5021734;28;20850;-49
2021/01/04 03:58:53;;;;;;;1.90;1.10;;;3.80;99.90;;;;;;5025010;28;20215;-48
2021/01/04 04:01:18;;;;;;;2.90;0.70;;;3.80;99.90;;;;;;5012100;28;20208;-52
2021/01/04 04:03:44;;;;;;;2.97;0.80;;;3.80;99.90;;;;;;5023384;28;20875;-51
2021/01/04 04:06:11;;;;;;;1.40;0.70;;;3.70;99.90;;;;;;5030652;28;20172;-48
2021/01/04 04:08:40;;;;;;;2.10;0.57;;;3.60;99.90;;;;;;5016245;28;20887;-51
2021/01/04 04:11:05;;;;;;;1.60;1.10;;;3.60;99.90;;;;;;5005989;28;20215;-47
2021/01/04 04:13:31;;;;;;;0.87;0.50;;;3.60;99.90;;;;;;5015702;28;20176;-48
2021/01/04 04:15:57;;;;;;;0.60;0.60;;;3.50;99.90;;;;;;5014564;28;20188;-49
2021/01/04 04:18:22;;;;;;;1.10;0.70;;;3.50;99.90;;;;;;5019868;28;20206;-51
2021/01/04 04:20:49;;;;;;;2.33;0.87;;;3.50;99.90;;;;;;5035636;28;20261;-53
2021/01/04 04:23:14;;;;;;;0.90;0.67;;;3.40;99.90;;;;;;5042095;28;20176;-47
2021/01/04 04:25:40;;;;;;;1.87;0.80;;;3.40;99.90;;;;;;5045263;28;20202;-47
2021/01/04 04:28:05;;;;;;;1.07;1.00;;;3.40;99.90;;;;;;5041379;28;20190;-48
2021/01/04 04:30:31;;;;;;;1.63;0.90;;;3.30;99.90;;;;;;5032464;28;20216;-48
2021/01/04 04:32:58;;;;;;;1.43;0.73;;;3.30;99.90;;;;;;5010246;28;20188;-50
2021/01/04 04:35:24;;;;;;;1.87;0.90;;;3.30;99.90;;;;;;5016958;28;22173;-47
2021/01/04 04:37:50;;;;;;;3.17;0.93;;;3.30;99.90;;;;;;5008120;28;20181;-50
2021/01/04 04:40:26;;;;;;;2.50;0.80;;;3.30;99.90;;;;;;5002116;28;20385;-47
2021/01/04 04:43:27;;;;;;;1.20;0.70;;;3.30;99.90;;;;;;5031476;28;20219;-50
2021/01/04 04:45:54;;;;;;;0.77;0.77;;;3.30;99.90;;;;;;4995341;28;20660;-48
2021/01/04 04:48:49;;;;;;;2.17;0.70;;;3.30;99.90;;;;;;5010789;28;20210;-50
2021/01/04 04:51:33;;;;;;;0.93;0.80;;;3.20;99.90;;;;;;5021087;28;20211;-49
2021/01/04 04:54:25;;;;;;;0.60;0.60;;;3.10;99.90;;;;;;5044398;28;20171;-47
2021/01/04 04:56:57;;;;;;;1.33;1.23;;;3.10;99.90;;;;;;5042342;28;20308;-50
2021/01/04 04:59:48;;;;;;;1.23;0.80;;;3.00;99.90;;;;;;5040080;28;20180;-48
2021/01/04 05:02:37;;;;;;;0.83;0.83;;;3.00;99.90;;;;;;5006533;28;20216;-47
2021/01/04 05:05:10;;;;;;;1.50;1.00;;;3.00;99.90;;;;;;5019149;28;20195;-48
2021/01/04 05:07:48;;;;;;;2.93;1.30;;;3.00;99.90;;;;;;5019466;28;20277;-48
2021/01/04 05:10:27;;;;;;;2.60;1.37;;;3.00;99.90;;;;;;5022115;28;20215;-49
2021/01/04 05:13:02;;;;;;;1.50;1.40;;;3.00;99.90;;;;;;5034729;28;20175;-47
2021/01/04 05:15:44;;;;;;;2.27;1.50;;;3.10;99.90;;;;;;5040118;28;20167;-52
2021/01/04 05:18:45;;;;;;;0.90;0.90;;;3.00;99.90;;;;;;5029616;28;20180;-50
2021/01/04 05:21:34;;;;;;;1.80;1.37;;;3.00;99.90;;;;;;5018356;28;20203;-54
2021/01/04 05:24:48;;;;;;;3.07;1.30;;;3.00;99.90;;;;;;5007922;28;20192;-47
2021/01/04 05:27:39;;;;;;;1.70;1.10;;;2.90;99.90;;;;;;5023486;28;20179;-49
2021/01/04 05:30:26;;;;;;;1.23;1.10;;;2.90;99.90;;;;;;5021935;28;20215;-50
2021/01/04 05:33:23;;;;;;;2.07;1.00;;;2.90;99.90;;;;;;5023153;28;20168;-47
2021/01/04 05:35:52;;;;;;;2.23;1.00;;;2.90;99.90;;;;;;5019843;28;20184;-50
2021/01/04 05:38:25;;;;;;;1.63;1.27;;;2.80;99.90;;;;;;5031698;28;20195;-48
2021/01/04 05:41:24;;;;;;;2.47;1.57;;;2.80;99.90;;;;;;5023533;28;20206;-48
2021/01/04 05:44:18;;;;;;;3.00;1.40;;;2.80;99.90;;;;;;5024566;28;20202;-46
2021/01/04 05:46:53;;;;;;;3.17;1.70;;;2.80;99.90;;;;;;5041474;28;20180;-47
2021/01/04 05:49:45;;;;;;;3.23;1.40;;;2.80;99.90;;;;;;5011403;28;20200;-47
2021/01/04 05:52:11;;;;;;;1.37;1.20;;;2.80;99.90;;;;;;5019858;28;20265;-50
2021/01/04 05:54:37;;;;;;;3.30;1.30;;;2.80;99.90;;;;;;5037596;28;20621;-49
2021/01/04 05:57:12;;;;;;;2.80;1.53;;;2.70;99.90;;;;;;5043864;28;20211;-47
2021/01/04 05:59:56;;;;;;;2.90;1.33;;;2.70;99.90;;;;;;5040218;28;20674;-48
2021/01/04 06:02:34;;;;;;;1.73;1.30;;;2.70;99.90;;;;;;5030954;28;20238;-52
2021/01/04 06:05:26;;;;;;;2.33;1.00;;;2.70;99.90;;;;;;5025212;28;20196;-49
2021/01/04 06:07:51;;;;;;;4.90;1.60;;;2.60;99.90;;;;;;5019902;28;20215;-51
2021/01/04 06:10:33;;;;;;;1.83;1.30;;;2.60;99.90;;;;;;5041241;28;20599;-50
2021/01/04 06:13:02;;;;;;;1.40;1.30;;;2.60;99.90;;;;;;5043586;28;20198;-47
2021/01/04 06:15:37;;;;;;;2.17;1.40;;;2.60;99.90;;;;;;5039206;28;20178;-49
2021/01/04 06:18:19;;;;;;;1.63;1.13;;;2.50;99.90;;;;;;5029333;28;20226;-47
2021/01/04 06:20:44;;;;;;;2.27;2.07;;;2.50;99.90;;;;;;5009838;28;20494;-47
2021/01/04 06:23:34;;;;;;;2.37;1.57;;;2.50;99.90;;;;;;5019296;28;20195;-53
2021/01/04 06:26:18;;;;;;;2.77;1.50;;;2.50;99.90;;;;;;5003835;28;20242;-46
2021/01/04 06:28:44;;;;;;;3.60;1.33;;;2.50;99.90;;;;;;5012937;28;20240;-49
2021/01/04 06:31:15;;;;;;;2.53;1.37;;;2.40;99.90;;;;;;5021775;28;20594;-50
2021/01/04 06:33:41;;;;;;;1.60;1.40;;;2.40;99.90;;;;;;5018459;28;20397;-52
2021/01/04 06:36:17;;;;;;;2.23;1.50;;;2.40;99.90;;;;;;5010836;28;20734;-51
2021/01/04 06:38:44;;;;;;;1.50;1.40;;;2.40;99.90;;;;;;5011352;28;20765;-49
2021/01/04 06:41:37;;;;;;;1.37;1.10;;;2.40;99.90;;;;;;5021113;28;20275;-50
2021/01/04 06:44:17;;;;;;;1.57;1.20;;;2.40;99.90;;;;;;5014160;28;20199;-47
2021/01/04 06:46:58;;;;;;;3.47;1.10;;;2.30;99.90;;;;;;5030102;28;20867;-47
2021/01/04 06:49:29;;;;;;;1.53;1.37;;;2.30;99.90;;;;;;5013889;28;20660;-52
2021/01/04 06:52:19;;;;;;;3.60;1.47;;;2.30;99.90;;;;;;5004212;28;20788;-46
2021/01/04 06:55:26;;;;;;;1.47;1.20;;;2.30;99.90;;;;;;5016178;28;20222;-46
2021/01/04 06:57:57;;;;;;;1.53;1.23;;;2.30;99.90;;;;;;5014199;28;20198;-52
2021/01/04 07:01:25;;;;;;;1.53;1.30;;;2.30;99.90;;;;;;5001327;28;20215;-49
2021/01/04 07:04:07;;;;;;;2.30;1.67;;;2.30;99.90;;;;;;4959148;28;20190;-51
2021/01/04 07:07:05;;;;;;;3.87;1.50;;;2.30;99.90;;;;;;4961699;28;20174;-46
2021/01/04 07:10:07;;;;;;;1.63;1.37;;;2.30;99.90;;;;;;5009760;28;20204;-47
2021/01/04 07:13:05;;;;;;;1.53;1.30;;;2.30;99.90;;;;;;5022599;28;20262;-45
2021/01/04 07:15:32;;;;;;;2.40;1.67;;;2.20;99.90;;;;;;5022798;28;20161;-45
2021/01/04 07:18:05;;;;;;;2.07;1.30;;;2.20;99.90;;;;;;5011668;28;20271;-50
2021/01/04 07:20:39;;;;;;;1.47;1.20;;;2.20;99.90;;;;;;5022073;28;20215;-47
2021/01/04 07:23:35;;;;;;;1.10;1.00;;;2.20;99.90;;;;;;5007296;28;20216;-46
2021/01/04 07:26:31;;;;;;;4.87;1.20;;;2.20;99.90;;;;;;5012817;28;20199;-50
2021/01/04 07:29:20;;;;;;;1.43;1.20;;;2.20;99.90;;;;;;5019537;28;20270;-48
2021/01/04 07:31:48;;;;;;;2.23;2.13;;;2.20;99.90;;;;;;5018048;28;20596;-48
2021/01/04 07:34:29;;;;;;;1.67;1.50;;;2.20;99.90;;;;;;5017398;28;20203;-46
2021/01/04 07:37:05;;;;;;;2.03;1.47;;;2.20;99.90;;;;;;5024627;28;20688;-46
2021/01/04 07:39:48;;;;;;;2.87;1.40;;;2.20;99.90;;;;;;5014399;28;20196;-47
2021/01/04 07:42:46;;;;;;;3.13;1.30;;;2.10;99.90;;;;;;5018164;28;20208;-47
2021/01/04 07:45:31;;;;;;;2.10;1.53;;;2.10;99.90;;;;;;5021646;28;20234;-46
2021/01/04 07:48:25;;;;;;;2.73;1.57;;;2.10;99.90;;;;;;5019660;28;20714;-48
2021/01/04 07:51:28;;;;;;;2.20;1.10;;;2.10;99.90;;;;;;5025109;28;20209;-49
2021/01/04 07:54:26;;;;;;;1.80;1.27;;;2.10;99.90;;;;;;5017348;28;20179;-48
2021/01/04 07:57:29;;;;;;;1.70;1.60;;;2.10;99.90;;;;;;5018873;28;20215;-51
2021/01/04 08:00:12;;;;;;;1.40;1.30;;;2.10;99.90;;;;;;5018122;28;20412;-47
2021/01/04 08:02:56;;;;;;;1.93;1.60;;;2.10;99.90;;;;;;5024334;28;20168;-48
2021/01/04 08:05:53;;;;;;;3.90;1.30;;;2.10;99.90;;;;;;5021983;28;20221;-48
2021/01/04 08:08:47;;;;;;;2.37;1.43;;;2.10;99.90;;;;;;5021641;28;20924;-52
2021/01/04 08:11:50;;;;;;;1.30;1.20;;;2.10;99.90;;;;;;5020063;28;20219;-47
2021/01/04 08:14:30;;;;;;;1.30;1.20;;;2.10;99.90;;;;;;5016766;28;20176;-50
2021/01/04 08:17:21;;;;;;;1.30;1.20;;;2.10;99.90;;;;;;5022129;28;20187;-48
2021/01/04 08:19:50;;;;;;;3.17;1.60;;;2.10;99.90;;;;;;5016725;28;20233;-47
2021/01/04 08:22:23;;;;;;;1.80;1.27;;;2.10;99.90;;;;;;5019735;28;20189;-46
2021/01/04 08:24:50;;;;;;;2.07;1.20;;;2.10;99.90;;;;;;5018370;28;20196;-47
2021/01/04 08:27:30;;;;;;;3.13;1.40;;;2.10;99.90;;;;;;5004706;28;20420;-47
2021/01/04 08:30:20;;;;;;;1.80;1.70;;;2.10;99.90;;;;;;5034329;28;20199;-52
2021/01/04 08:33:00;;;;;;;4.87;1.40;;;2.10;99.90;;;;;;5014400;28;20191;-48
2021/01/04 08:35:34;;;;;;;2.80;1.57;;;2.10;99.90;;;;;;5014934;28;20770;-46
2021/01/04 08:38:21;;;;;;;2.03;1.70;;;2.10;99.90;;;;;;4994426;28;20159;-48
2021/01/04 08:41:20;;;;;;;1.60;1.50;;;2.10;99.90;;;;;;5005083;28;20230;-50
2021/01/04 08:43:49;;;;;;;2.13;1.50;;;2.10;99.90;;;;;;5018230;28;20542;-48
2021/01/04 08:46:17;;;;;;;2.40;1.60;;;2.10;99.90;;;;;;5022033;28;20711;-47
2021/01/04 08:48:43;;;;;;;3.53;1.50;;;2.10;99.90;;;;;;5016335;28;20314;-50
2021/01/04 08:51:13;;;;;;;6.13;1.43;;;2.10;99.90;;;;;;5020980;28;20218;-47
2021/01/04 08:53:50;;;;;;;1.60;1.50;;;2.10;99.90;;;;;;5023470;28;20176;-50
2021/01/04 08:56:46;;;;;;;1.70;1.50;;;2.10;99.90;;;;;;5020035;28;20238;-49
2021/01/04 08:59:15;;;;;;;1.70;1.60;;;2.10;99.90;;;;;;5012846;28;20231;-46
2021/01/04 09:01:59;;;;;;;3.33;1.67;;;2.10;99.90;;;;;;5022579;28;20203;-51
2021/01/04 09:04:36;;;;;;;2.03;1.23;;;2.10;99.90;;;;;;5020448;28;20726;-48
2021/01/04 09:07:16;;;;;;;2.10;1.83;;;2.10;99.90;;;;;;5015757;28;20200;-46
2021/01/04 09:09:54;;;;;;;3.80;1.50;;;2.10;99.90;;;;;;5015989;28;20237;-51
2021/01/04 09:12:27;;;;;;;3.87;1.80;;;2.20;99.90;;;;;;5013274;28;20648;-46
2021/01/04 09:15:29;;;;;;;1.50;1.40;;;2.20;99.90;;;;;;5009297;28;20557;-52
2021/01/04 09:18:01;;;;;;;3.87;1.60;;;2.20;99.90;;;;;;4995013;28;20196;-50
2021/01/04 09:20:51;;;;;;;1.57;1.43;;;2.20;99.90;;;;;;5015949;28;20211;-46
2021/01/04 09:23:22;;;;;;;2.97;1.50;;;2.20;99.90;;;;;;5017415;28;20245;-46
2021/01/04 09:26:02;;;;;;;1.37;1.20;;;2.20;99.90;;;;;;4999486;28;20215;-52
2021/01/04 09:28:36;;;;;;;2.17;1.60;;;2.20;99.90;;;;;;5009295;28;20191;-47
2021/01/04 09:31:02;;;;;;;1.30;1.20;;;2.20;99.90;;;;;;5007029;28;20278;-47
2021/01/04 09:33:28;;;;;;;2.93;1.50;;;2.20;99.90;;;;;;5004641;28;20180;-48
2021/01/04 09:36:07;;;;;;;2.47;1.47;;;2.20;99.90;;;;;;4997650;28;20184;-46
2021/01/04 09:38:32;;;;;;;2.60;1.30;;;2.20;99.90;;;;;;5004995;28;20534;-51
2021/01/04 09:41:03;;;;;;;1.97;1.53;;;2.20;99.90;;;;;;5008903;28;20219;-47
2021/01/04 09:43:32;;;;;;;2.30;1.67;;;2.20;99.90;;;;;;5004593;28;20196;-50
2021/01/04 09:46:21;;;;;;;1.30;1.20;;;2.20;99.90;;;;;;5016151;28;20204;-49
2021/01/04 09:49:00;;;;;;;1.60;1.50;;;2.20;99.90;;;;;;5012427;28;20202;-53
2021/01/04 09:51:39;;;;;;;1.73;1.30;;;2.20;99.90;;;;;;5022911;28;20265;-46
2021/01/04 09:54:08;;;;;;;2.10;1.23;;;2.20;99.90;;;;;;5006081;28;20229;-52
2021/01/04 09:56:38;;;;;;;1.30;1.20;;;2.30;99.90;;;;;;5029184;28;20236;-46
2021/01/04 09:59:23;;;;;;;1.47;1.23;;;2.30;99.90;;;;;;5008385;28;20287;-48
2021/01/04 10:02:01;;;;;;;1.30;1.20;;;2.20;99.90;;;;;;5024400;28;20210;-47
2021/01/04 10:04:29;;;;;;;2.27;1.30;;;2.30;99.90;;;;;;5027194;28;21891;-46
2021/01/04 10:06:56;;;;;;;1.70;1.17;;;2.30;99.90;;;;;;5022966;28;20194;-52
2021/01/04 10:09:22;;;;;;;2.30;1.10;;;2.30;99.90;;;;;;5019894;28;20186;-51
2021/01/04 10:11:49;;;;;;;1.90;1.33;;;2.30;99.90;;;;;;5021375;28;20219;-47
2021/01/04 10:14:19;;;;;;;0.80;0.80;;;2.30;99.90;;;;;;5007880;28;20188;-48
2021/01/04 10:16:50;;;;;;;1.47;1.37;;;2.30;99.90;;;;;;5020446;28;20241;-49
2021/01/04 10:19:24;;;;;;;1.70;1.03;;;2.30;99.90;;;;;;5018049;28;20180;-46
2021/01/04 10:21:56;;;;;;;3.90;1.37;;;2.40;99.90;;;;;;5022432;28;20628;-49
2021/01/04 10:24:32;;;;;;;1.43;1.00;;;2.40;99.90;;;;;;5017129;28;20346;-47
2021/01/04 10:27:03;;;;;;;0.83;0.70;;;2.40;99.90;;;;;;5010690;28;20538;-53
2021/01/04 10:29:29;;;;;;;1.97;0.93;;;2.40;99.90;;;;;;5018411;28;20219;-46
2021/01/04 10:32:13;;;;;;;1.50;1.10;;;2.40;99.90;;;;;;5017967;28;20688;-50
2021/01/04 10:34:45;;;;;;;1.37;1.27;;;2.40;99.90;;;;;;5018095;28;20188;-50
2021/01/04 10:37:35;;;;;;;1.33;1.20;;;2.50;99.90;;;;;;5014445;28;20245;-47
2021/01/04 10:40:05;;;;;;;1.53;0.97;;;2.50;99.90;;;;;;5000508;28;20238;-49
2021/01/04 10:42:31;;;;;;;1.50;1.40;;;2.50;99.90;;;;;;5025104;28;20237;-49
2021/01/04 10:45:10;;;;;;;1.90;1.63;;;2.50;99.90;;;;;;5009451;28;20212;-49
2021/01/04 10:47:43;;;;;;;2.00;1.63;;;2.60;99.90;;;;;;5022987;28;20179;-46
2021/01/04 10:50:30;;;;;;;1.90;1.33;;;2.60;99.90;;;;;;5017384;28;20276;-47
2021/01/04 10:52:59;;;;;;;1.67;1.10;;;2.60;99.90;;;;;;5041188;28;20237;-52
2021/01/04 10:55:26;;;;;;;2.30;1.50;;;2.60;99.90;;;;;;5019392;28;20191;-46
2021/01/04 10:57:57;;;;;;;2.07;0.97;;;2.60;99.90;;;;;;5019830;28;20193;-55
2021/01/04 11:00:25;;;;;;;1.63;1.33;;;2.60;99.90;;;;;;5003832;28;20933;-50
2021/01/04 11:02:53;;;;;;;2.00;1.43;;;2.60;99.90;;;;;;5021618;28;20175;-56
2021/01/04 11:05:32;;;;;;;4.97;1.47;;;2.60;99.90;;;;;;5010527;28;20199;-48
2021/01/04 11:08:16;;;;;;;1.67;1.27;;;2.60;99.90;;;;;;5001774;28;20185;-54
2021/01/04 11:10:55;;;;;;;3.07;1.60;;;2.60;99.90;;;;;;5017017;28;20242;-52
2021/01/04 11:13:30;;;;;;;1.53;1.40;;;2.60;99.90;;;;;;5020874;28;20922;-55
2021/01/04 11:16:12;;;;;;;1.70;1.20;;;2.60;99.90;;;;;;5008686;28;20188;-53
2021/01/04 11:18:54;;;;;;;1.47;1.27;;;2.60;99.90;;;;;;5026459;28;20180;-53
2021/01/04 11:21:34;;;;;;;1.30;1.00;;;2.60;99.90;;;;;;5030894;28;20203;-50
2021/01/04 11:24:00;;;;;;;1.83;1.07;;;2.60;99.90;;;;;;5042744;28;20178;-53
2021/01/04 11:26:25;;;;;;;1.60;1.00;;;2.60;99.90;;;;;;5041898;28;20259;-51
2021/01/04 11:28:51;;;;;;;2.00;1.10;;;2.60;99.90;;;;;;5039812;28;20687;-55
2021/01/04 11:31:16;;;;;;;1.73;1.23;;;2.60;99.90;;;;;;5001339;28;20322;-52
2021/01/04 11:33:42;;;;;;;1.83;1.20;;;2.60;99.90;;;;;;5020570;28;20207;-49
2021/01/04 11:36:10;;;;;;;1.60;1.50;;;2.60;99.90;;;;;;5019237;28;20494;-55
2021/01/04 11:38:36;;;;;;;2.70;1.20;;;2.60;99.90;;;;;;5026403;28;20237;-50
2021/01/04 11:41:01;;;;;;;2.03;1.40;;;2.60;99.90;;;;;;5027966;28;20211;-50
2021/01/04 11:43:27;;;;;;;2.97;1.43;;;2.60;99.90;;;;;;5044653;28;20178;-49
2021/01/04 11:45:52;;;;;;;2.23;1.50;;;2.60;99.90;;;;;;5036734;28;20249;-54
2021/01/04 11:48:18;;;;;;;1.50;1.20;;;2.50;99.90;;;;;;5012907;28;20234;-50
2021/01/04 11:50:43;;;;;;;0.93;0.90;;;2.50;99.90;;;;;;5026663;28;20218;-53
2021/01/04 11:53:09;;;;;;;1.00;0.93;;;2.50;99.90;;;;;;5041675;28;20164;-57
2021/01/04 11:55:34;;;;;;;1.40;0.90;;;2.60;99.90;;;;;;5040498;28;20179;-51
2021/01/04 11:58:00;;;;;;;2.27;1.20;;;2.50;99.90;;;;;;5038624;28;20199;-54
2021/01/04 12:00:26;;;;;;;1.17;1.07;;;2.60;99.90;;;;;;5017777;28;20215;-47
2021/01/04 12:02:51;;;;;;;2.27;1.30;;;2.60;99.90;;;;;;5010882;28;20675;-52
2021/01/04 12:05:17;;;;;;;2.73;1.07;;;2.60;99.90;;;;;;5022783;28;20936;-47
2021/01/04 12:07:44;;;;;;;1.40;1.10;;;2.60;99.90;;;;;;5022379;28;20710;-49
2021/01/04 12:10:14;;;;;;;3.27;1.30;;;2.60;99.90;;;;;;5022071;28;20204;-47
2021/01/04 12:12:39;;;;;;;1.03;0.93;;;2.60;99.90;;;;;;5027107;28;20203;-46
2021/01/04 12:15:07;;;;;;;0.80;0.80;;;2.60;99.90;;;;;;5037528;28;20215;-50
2021/01/04 12:17:32;;;;;;;1.07;1.00;;;2.60;99.90;;;;;;5026847;28;20234;-45
2021/01/04 12:19:58;;;;;;;2.90;1.07;;;2.60;99.90;;;;;;5021336;28;20172;-52
2021/01/04 12:22:24;;;;;;;1.67;0.90;;;2.70;99.90;;;;;;5036254;28;21031;-45
2021/01/04 12:24:49;;;;;;;2.37;0.90;;;2.70;99.90;;;;;;5044465;28;20183;-50
2021/01/04 12:27:16;;;;;;;2.60;1.13;;;2.70;99.90;;;;;;5039646;28;20239;-46
2021/01/04 12:29:46;;;;;;;1.00;0.90;;;2.60;99.90;;;;;;5025791;28;20223;-50
2021/01/04 12:32:13;;;;;;;2.83;1.10;;;2.70;99.90;;;;;;5003566;28;20207;-49
2021/01/04 12:34:40;;;;;;;1.00;0.90;;;2.60;99.90;;;;;;5025379;28;20263;-49
2021/01/04 12:37:05;;;;;;;2.43;1.00;;;2.70;99.90;;;;;;5019552;28;20172;-49
2021/01/04 12:39:31;;;;;;;3.43;1.47;;;2.60;99.90;;;;;;5024606;28;20234;-48
2021/01/04 12:41:56;;;;;;;1.53;1.43;;;2.60;99.90;;;;;;5022534;28;20303;-51
2021/01/04 12:44:22;;;;;;;1.47;1.10;;;2.60;99.90;;;;;;5015188;28;20188;-46
2021/01/04 12:46:50;;;;;;;4.03;1.87;;;2.60;99.90;;;;;;5018878;28;20195;-46
2021/01/04 12:49:17;;;;;;;3.53;1.87;;;2.60;99.90;;;;;;5009402;28;20192;-46
2021/01/04 12:51:47;;;;;;;3.57;2.10;;;2.60;99.90;;;;;;5016427;28;20722;-50
2021/01/04 12:54:18;;;;;;;2.93;1.83;;;2.60;99.90;;;;;;5010716;28;20179;-48
2021/01/04 12:56:45;;;;;;;2.70;1.63;;;2.60;99.90;;;;;;5022288;28;20180;-50
2021/01/04 12:59:12;;;;;;;2.03;1.53;;;2.60;99.90;;;;;;5016796;28;20180;-49
2021/01/04 13:01:39;;;;;;;1.73;1.60;;;2.60;99.90;;;;;;5019306;28;20208;-48
2021/01/04 13:04:04;;;;;;;3.50;1.50;;;2.60;99.90;;;;;;5005662;28;20274;-50
2021/01/04 13:06:30;;;;;;;1.23;1.13;;;2.60;99.90;;;;;;5032197;28;20259;-53
2021/01/04 13:08:55;;;;;;;1.63;1.43;;;2.60;99.90;;;;;;5020061;28;20204;-53
2021/01/04 13:11:21;;;;;;;1.97;1.30;;;2.60;99.90;;;;;;5015211;28;20227;-53
2021/01/04 13:13:46;;;;;;;1.37;1.13;;;2.60;99.90;;;;;;5033150;28;20214;-50
2021/01/04 13:16:12;;;;;;;1.40;1.30;;;2.60;99.90;;;;;;5009929;28;20192;-51
2021/01/04 13:18:38;;;;;;;1.83;1.20;;;2.60;99.90;;;;;;5004097;28;20728;-49
2021/01/04 13:21:03;;;;;;;3.33;1.50;;;2.60;99.90;;;;;;5021844;28;20196;-51
2021/01/04 13:23:29;;;;;;;2.50;1.60;;;2.60;99.90;;;;;;5020172;28;20249;-53
2021/01/04 13:25:54;;;;;;;2.00;1.60;;;2.60;99.90;;;;;;5013376;28;20193;-50
2021/01/04 13:28:19;;;;;;;1.73;1.50;;;2.60;99.90;;;;;;5018979;28;20541;-50
2021/01/04 13:30:45;;;;;;;2.77;1.40;;;2.60;99.90;;;;;;5024883;28;20211;-48
2021/01/04 13:33:11;;;;;;;3.93;2.10;;;2.60;99.90;;;;;;5010352;28;22778;-53
2021/01/04 13:35:37;;;;;;;2.87;1.67;;;2.60;99.90;;;;;;5013028;28;20557;-49
2021/01/04 13:38:03;;;;;;;3.03;1.80;;;2.60;99.90;;;;;;5022902;28;20251;-47
2021/01/04 13:40:29;;;;;;;2.27;1.87;;;2.60;99.90;;;;;;5024460;28;20213;-53
2021/01/04 13:42:54;;;;;;;2.83;2.20;;;2.50;99.90;;;;;;5011957;28;20192;-49
2021/01/04 13:45:20;;;;;;;3.47;1.60;;;2.50;99.90;;;;;;5022314;28;20188;-51
2021/01/04 13:47:45;;;;;;;2.23;1.60;;;2.50;99.90;;;;;;5020765;28;20824;-53